sensor_id;sensor_type;location;lat;lon;timestamp;P1;durP1;ratioP1;P2;durP2;ratioP2
40588;SDS011;26297;49.450;6.640;2023-04-06T00:02:19;2.53;;;2.20;;
40588;SDS011;26297;49.450;6.640;2023-04-06T00:05:28;3.33;;;2.60;;
40588;SDS011;26297;49.450;6.640;2023-04-06T00:08:35;4.35;;;2.80;;
40588;SDS011;26297;49.450;6.640;2023-04-06T00:11:41;3.25;;;2.45;;
40588;SDS011;26297;49.450;6.640;2023-04-06T00:14:54;5.40;;;2.80;;
40588;SDS011;26297;49.450;6.640;2023-04-06T00:18:29;4.40;;;2.65;;
40588;SDS011;26297;49.450;6.640;2023-04-06T00:21:53;4.32;;;2.80;;
40588;SDS011;26297;49.450;6.640;2023-04-06T00:25:03;4.20;;;2.55;;
40588;SDS011;26297;49.450;6.640;2023-04-06T00:28:37;3.65;;;2.67;;
40588;SDS011;26297;49.450;6.640;2023-04-06T00:31:59;3.83;;;2.65;;
40588;SDS011;26297;49.450;6.640;2023-04-06T00:35:30;2.95;;;2.55;;
40588;SDS011;26297;49.450;6.640;2023-04-06T00:38:39;3.70;;;2.63;;
40588;SDS011;26297;49.450;6.640;2023-04-06T00:46:06;2.63;;;2.38;;
40588;SDS011;26297;49.450;6.640;2023-04-06T00:49:39;7.07;;;3.10;;
40588;SDS011;26297;49.450;6.640;2023-04-06T00:53:06;4.78;;;2.83;;
40588;SDS011;26297;49.450;6.640;2023-04-06T00:56:27;2.97;;;2.67;;
40588;SDS011;26297;49.450;6.640;2023-04-06T00:59:57;4.03;;;2.53;;
40588;SDS011;26297;49.450;6.640;2023-04-06T01:06:49;3.90;;;2.83;;
40588;SDS011;26297;49.450;6.640;2023-04-06T01:14:09;3.20;;;2.60;;
40588;SDS011;26297;49.450;6.640;2023-04-06T01:29:02;3.72;;;2.58;;
40588;SDS011;26297;49.450;6.640;2023-04-06T01:32:39;3.38;;;2.65;;
40588;SDS011;26297;49.450;6.640;2023-04-06T01:35:49;3.78;;;3.10;;
40588;SDS011;26297;49.450;6.640;2023-04-06T01:39:00;5.22;;;3.30;;
40588;SDS011;26297;49.450;6.640;2023-04-06T01:42:16;5.40;;;3.30;;
40588;SDS011;26297;49.450;6.640;2023-04-06T01:45:22;4.35;;;2.88;;
40588;SDS011;26297;49.450;6.640;2023-04-06T01:48:31;3.97;;;2.90;;
40588;SDS011;26297;49.450;6.640;2023-04-06T01:51:55;7.50;;;2.85;;
40588;SDS011;26297;49.450;6.640;2023-04-06T01:55:10;3.53;;;3.15;;
40588;SDS011;26297;49.450;6.640;2023-04-06T01:58:25;3.33;;;3.03;;
40588;SDS011;26297;49.450;6.640;2023-04-06T02:05:02;5.82;;;2.97;;
40588;SDS011;26297;49.450;6.640;2023-04-06T02:12:15;5.25;;;2.95;;
40588;SDS011;26297;49.450;6.640;2023-04-06T02:15:29;4.85;;;3.15;;
40588;SDS011;26297;49.450;6.640;2023-04-06T02:18:36;7.20;;;4.22;;
40588;SDS011;26297;49.450;6.640;2023-04-06T02:22:42;7.00;;;3.47;;
40588;SDS011;26297;49.450;6.640;2023-04-06T02:26:04;3.73;;;3.07;;
40588;SDS011;26297;49.450;6.640;2023-04-06T02:29:20;4.72;;;3.03;;
40588;SDS011;26297;49.450;6.640;2023-04-06T02:32:28;5.20;;;3.22;;
40588;SDS011;26297;49.450;6.640;2023-04-06T02:35:34;4.15;;;2.95;;
40588;SDS011;26297;49.450;6.640;2023-04-06T02:38:56;3.92;;;2.97;;
40588;SDS011;26297;49.450;6.640;2023-04-06T02:42:01;5.28;;;3.28;;
40588;SDS011;26297;49.450;6.640;2023-04-06T02:45:12;3.70;;;3.15;;
40588;SDS011;26297;49.450;6.640;2023-04-06T02:48:19;4.97;;;3.45;;
40588;SDS011;26297;49.450;6.640;2023-04-06T02:51:32;6.00;;;3.17;;
40588;SDS011;26297;49.450;6.640;2023-04-06T02:54:44;3.50;;;3.20;;
40588;SDS011;26297;49.450;6.640;2023-04-06T02:57:55;3.47;;;2.88;;
40588;SDS011;26297;49.450;6.640;2023-04-06T03:00:59;3.85;;;2.78;;
40588;SDS011;26297;49.450;6.640;2023-04-06T03:04:05;4.25;;;3.42;;
40588;SDS011;26297;49.450;6.640;2023-04-06T03:07:11;4.05;;;3.20;;
40588;SDS011;26297;49.450;6.640;2023-04-06T03:10:18;3.88;;;3.30;;
40588;SDS011;26297;49.450;6.640;2023-04-06T03:13:27;3.97;;;3.10;;
40588;SDS011;26297;49.450;6.640;2023-04-06T03:16:33;3.63;;;3.33;;
40588;SDS011;26297;49.450;6.640;2023-04-06T03:19:43;3.83;;;3.10;;
40588;SDS011;26297;49.450;6.640;2023-04-06T03:22:52;5.20;;;3.40;;
40588;SDS011;26297;49.450;6.640;2023-04-06T03:26:09;4.00;;;2.80;;
40588;SDS011;26297;49.450;6.640;2023-04-06T03:29:16;6.97;;;4.22;;
40588;SDS011;26297;49.450;6.640;2023-04-06T03:32:38;4.53;;;3.25;;
40588;SDS011;26297;49.450;6.640;2023-04-06T03:36:03;6.22;;;3.90;;
40588;SDS011;26297;49.450;6.640;2023-04-06T03:39:12;3.60;;;3.00;;
40588;SDS011;26297;49.450;6.640;2023-04-06T03:42:24;5.28;;;3.38;;
40588;SDS011;26297;49.450;6.640;2023-04-06T03:45:30;5.93;;;3.70;;
40588;SDS011;26297;49.450;6.640;2023-04-06T03:48:39;4.72;;;3.10;;
40588;SDS011;26297;49.450;6.640;2023-04-06T03:51:48;4.43;;;3.45;;
40588;SDS011;26297;49.450;6.640;2023-04-06T03:55:02;6.07;;;3.53;;
40588;SDS011;26297;49.450;6.640;2023-04-06T03:58:13;5.43;;;3.35;;
40588;SDS011;26297;49.450;6.640;2023-04-06T04:08:33;4.88;;;2.97;;
40588;SDS011;26297;49.450;6.640;2023-04-06T04:12:38;4.82;;;3.45;;
40588;SDS011;26297;49.450;6.640;2023-04-06T04:16:35;15.00;;;7.20;;
40588;SDS011;26297;49.450;6.640;2023-04-06T04:20:15;20.33;;;8.40;;
40588;SDS011;26297;49.450;6.640;2023-04-06T04:23:40;16.52;;;6.43;;
40588;SDS011;26297;49.450;6.640;2023-04-06T04:26:50;12.07;;;5.82;;
40588;SDS011;26297;49.450;6.640;2023-04-06T04:36:42;10.48;;;5.13;;
40588;SDS011;26297;49.450;6.640;2023-04-06T04:39:50;10.32;;;4.82;;
40588;SDS011;26297;49.450;6.640;2023-04-06T04:46:17;7.35;;;4.63;;
40588;SDS011;26297;49.450;6.640;2023-04-06T04:49:39;7.55;;;4.43;;
40588;SDS011;26297;49.450;6.640;2023-04-06T04:52:52;5.78;;;4.00;;
40588;SDS011;26297;49.450;6.640;2023-04-06T04:56:11;6.20;;;3.58;;
40588;SDS011;26297;49.450;6.640;2023-04-06T04:59:29;6.15;;;4.28;;
40588;SDS011;26297;49.450;6.640;2023-04-06T05:05:27;8.40;;;4.18;;
40588;SDS011;26297;49.450;6.640;2023-04-06T05:09:15;7.50;;;4.15;;
40588;SDS011;26297;49.450;6.640;2023-04-06T05:12:28;6.50;;;4.00;;
40588;SDS011;26297;49.450;6.640;2023-04-06T05:15:32;7.82;;;3.72;;
40588;SDS011;26297;49.450;6.640;2023-04-06T05:18:47;5.60;;;3.90;;
40588;SDS011;26297;49.450;6.640;2023-04-06T05:21:56;5.30;;;3.83;;
40588;SDS011;26297;49.450;6.640;2023-04-06T05:25:01;5.93;;;3.85;;
40588;SDS011;26297;49.450;6.640;2023-04-06T05:28:37;7.80;;;4.63;;
40588;SDS011;26297;49.450;6.640;2023-04-06T05:31:48;5.32;;;4.45;;
40588;SDS011;26297;49.450;6.640;2023-04-06T05:34:56;9.10;;;4.97;;
40588;SDS011;26297;49.450;6.640;2023-04-06T05:38:00;8.02;;;4.38;;
40588;SDS011;26297;49.450;6.640;2023-04-06T05:41:03;7.68;;;4.93;;
40588;SDS011;26297;49.450;6.640;2023-04-06T05:44:10;6.78;;;4.78;;
40588;SDS011;26297;49.450;6.640;2023-04-06T05:47:25;5.63;;;4.85;;
40588;SDS011;26297;49.450;6.640;2023-04-06T05:51:09;5.35;;;4.30;;
40588;SDS011;26297;49.450;6.640;2023-04-06T05:54:16;4.15;;;3.30;;
40588;SDS011;26297;49.450;6.640;2023-04-06T05:57:22;7.72;;;4.43;;
40588;SDS011;26297;49.450;6.640;2023-04-06T06:00:26;4.13;;;3.72;;
40588;SDS011;26297;49.450;6.640;2023-04-06T06:03:35;3.50;;;3.20;;
40588;SDS011;26297;49.450;6.640;2023-04-06T06:06:57;5.28;;;4.47;;
40588;SDS011;26297;49.450;6.640;2023-04-06T06:10:04;5.05;;;4.13;;
40588;SDS011;26297;49.450;6.640;2023-04-06T06:13:27;3.97;;;3.22;;
40588;SDS011;26297;49.450;6.640;2023-04-06T06:17:08;4.80;;;3.75;;
40588;SDS011;26297;49.450;6.640;2023-04-06T06:20:22;4.20;;;3.47;;
40588;SDS011;26297;49.450;6.640;2023-04-06T06:23:35;5.03;;;4.47;;
40588;SDS011;26297;49.450;6.640;2023-04-06T06:26:41;5.82;;;3.88;;
40588;SDS011;26297;49.450;6.640;2023-04-06T06:29:48;6.35;;;4.05;;
40588;SDS011;26297;49.450;6.640;2023-04-06T06:33:01;6.63;;;3.83;;
40588;SDS011;26297;49.450;6.640;2023-04-06T06:36:02;7.07;;;4.45;;
40588;SDS011;26297;49.450;6.640;2023-04-06T06:39:14;5.30;;;3.63;;
40588;SDS011;26297;49.450;6.640;2023-04-06T06:42:47;6.18;;;3.42;;
40588;SDS011;26297;49.450;6.640;2023-04-06T06:46:02;6.88;;;4.25;;
40588;SDS011;26297;49.450;6.640;2023-04-06T06:49:06;8.40;;;3.85;;
40588;SDS011;26297;49.450;6.640;2023-04-06T06:52:36;7.40;;;4.38;;
40588;SDS011;26297;49.450;6.640;2023-04-06T07:08:41;6.68;;;4.80;;
40588;SDS011;26297;49.450;6.640;2023-04-06T07:12:17;7.80;;;4.63;;
40588;SDS011;26297;49.450;6.640;2023-04-06T07:16:05;5.35;;;4.55;;
40588;SDS011;26297;49.450;6.640;2023-04-06T07:36:55;6.72;;;5.10;;
40588;SDS011;26297;49.450;6.640;2023-04-06T07:40:40;6.70;;;4.47;;
40588;SDS011;26297;49.450;6.640;2023-04-06T07:51:52;5.75;;;4.90;;
40588;SDS011;26297;49.450;6.640;2023-04-06T07:55:38;8.52;;;5.57;;
40588;SDS011;26297;49.450;6.640;2023-04-06T07:59:19;6.88;;;5.03;;
40588;SDS011;26297;49.450;6.640;2023-04-06T08:02:42;9.77;;;4.93;;
40588;SDS011;26297;49.450;6.640;2023-04-06T08:05:57;10.40;;;5.50;;
40588;SDS011;26297;49.450;6.640;2023-04-06T08:09:29;7.65;;;5.22;;
40588;SDS011;26297;49.450;6.640;2023-04-06T08:13:13;7.95;;;5.53;;
40588;SDS011;26297;49.450;6.640;2023-04-06T08:16:59;7.03;;;5.28;;
40588;SDS011;26297;49.450;6.640;2023-04-06T08:29:40;7.20;;;5.70;;
40588;SDS011;26297;49.450;6.640;2023-04-06T08:33:07;8.88;;;5.60;;
40588;SDS011;26297;49.450;6.640;2023-04-06T08:36:18;8.30;;;5.18;;
40588;SDS011;26297;49.450;6.640;2023-04-06T08:39:35;8.55;;;5.95;;
40588;SDS011;26297;49.450;6.640;2023-04-06T09:45:27;9.93;;;6.28;;
40588;SDS011;26297;49.450;6.640;2023-04-06T09:48:35;7.15;;;5.75;;
40588;SDS011;26297;49.450;6.640;2023-04-06T09:51:40;7.03;;;4.43;;
40588;SDS011;26297;49.450;6.640;2023-04-06T09:54:49;7.63;;;4.55;;
40588;SDS011;26297;49.450;6.640;2023-04-06T09:58:05;7.57;;;5.50;;
40588;SDS011;26297;49.450;6.640;2023-04-06T10:01:13;8.23;;;4.63;;
40588;SDS011;26297;49.450;6.640;2023-04-06T10:04:56;8.98;;;5.68;;
40588;SDS011;26297;49.450;6.640;2023-04-06T10:07:57;9.07;;;4.63;;
40588;SDS011;26297;49.450;6.640;2023-04-06T10:11:03;9.27;;;4.80;;
40588;SDS011;26297;49.450;6.640;2023-04-06T10:14:13;6.22;;;4.13;;
40588;SDS011;26297;49.450;6.640;2023-04-06T10:17:35;9.07;;;5.60;;
40588;SDS011;26297;49.450;6.640;2023-04-06T11:04:22;5.90;;;3.50;;
40588;SDS011;26297;49.450;6.640;2023-04-06T11:11:14;7.32;;;3.72;;
40588;SDS011;26297;49.450;6.640;2023-04-06T11:14:41;4.88;;;3.33;;
40588;SDS011;26297;49.450;6.640;2023-04-06T11:18:06;6.97;;;4.00;;
40588;SDS011;26297;49.450;6.640;2023-04-06T11:21:15;6.95;;;3.45;;
40588;SDS011;26297;49.450;6.640;2023-04-06T11:24:22;5.90;;;4.00;;
40588;SDS011;26297;49.450;6.640;2023-04-06T11:27:55;4.38;;;2.80;;
40588;SDS011;26297;49.450;6.640;2023-04-06T13:02:45;5.30;;;3.40;;
40588;SDS011;26297;49.450;6.640;2023-04-06T13:06:11;5.30;;;3.50;;
40588;SDS011;26297;49.450;6.640;2023-04-06T13:09:34;5.35;;;3.72;;
40588;SDS011;26297;49.450;6.640;2023-04-06T13:12:50;7.53;;;4.07;;
40588;SDS011;26297;49.450;6.640;2023-04-06T13:16:12;4.03;;;3.25;;
40588;SDS011;26297;49.450;6.640;2023-04-06T13:19:29;4.35;;;3.25;;
40588;SDS011;26297;49.450;6.640;2023-04-06T13:22:39;5.50;;;3.58;;
40588;SDS011;26297;49.450;6.640;2023-04-06T13:26:04;4.10;;;2.70;;
40588;SDS011;26297;49.450;6.640;2023-04-06T13:29:16;3.60;;;3.17;;
40588;SDS011;26297;49.450;6.640;2023-04-06T13:32:22;4.78;;;3.08;;
40588;SDS011;26297;49.450;6.640;2023-04-06T13:35:46;5.38;;;3.17;;
40588;SDS011;26297;49.450;6.640;2023-04-06T13:39:20;3.30;;;2.47;;
40588;SDS011;26297;49.450;6.640;2023-04-06T13:42:39;4.30;;;2.75;;
40588;SDS011;26297;49.450;6.640;2023-04-06T13:46:01;4.20;;;2.78;;
40588;SDS011;26297;49.450;6.640;2023-04-06T13:49:31;4.10;;;2.45;;
40588;SDS011;26297;49.450;6.640;2023-04-06T15:40:26;3.95;;;2.65;;
40588;SDS011;26297;49.450;6.640;2023-04-06T15:43:32;3.70;;;2.90;;
40588;SDS011;26297;49.450;6.640;2023-04-06T15:46:38;6.60;;;3.08;;
40588;SDS011;26297;49.450;6.640;2023-04-06T15:49:48;6.35;;;3.00;;
40588;SDS011;26297;49.450;6.640;2023-04-06T15:52:55;2.97;;;2.78;;
40588;SDS011;26297;49.450;6.640;2023-04-06T15:56:09;3.28;;;2.53;;
40588;SDS011;26297;49.450;6.640;2023-04-06T16:12:16;3.42;;;2.75;;
40588;SDS011;26297;49.450;6.640;2023-04-06T16:24:26;3.20;;;2.87;;
40588;SDS011;26297;49.450;6.640;2023-04-06T16:27:32;3.88;;;2.58;;
40588;SDS011;26297;49.450;6.640;2023-04-06T16:30:41;5.65;;;2.78;;
40588;SDS011;26297;49.450;6.640;2023-04-06T16:33:56;3.50;;;2.72;;
40588;SDS011;26297;49.450;6.640;2023-04-06T16:36:59;3.13;;;2.30;;
40588;SDS011;26297;49.450;6.640;2023-04-06T16:40:06;3.10;;;2.60;;
40588;SDS011;26297;49.450;6.640;2023-04-06T16:43:16;3.92;;;2.47;;
40588;SDS011;26297;49.450;6.640;2023-04-06T16:46:21;3.97;;;2.40;;
40588;SDS011;26297;49.450;6.640;2023-04-06T16:49:34;3.38;;;2.47;;
40588;SDS011;26297;49.450;6.640;2023-04-06T16:52:41;3.03;;;2.30;;
40588;SDS011;26297;49.450;6.640;2023-04-06T16:55:48;3.53;;;2.30;;
40588;SDS011;26297;49.450;6.640;2023-04-06T16:59:12;3.72;;;2.13;;
40588;SDS011;26297;49.450;6.640;2023-04-06T17:31:36;2.70;;;2.20;;
40588;SDS011;26297;49.450;6.640;2023-04-06T18:08:47;2.30;;;1.80;;
40588;SDS011;26297;49.450;6.640;2023-04-06T18:11:58;1.80;;;1.55;;
40588;SDS011;26297;49.450;6.640;2023-04-06T18:15:11;3.50;;;2.08;;
40588;SDS011;26297;49.450;6.640;2023-04-06T18:18:18;4.50;;;2.22;;
40588;SDS011;26297;49.450;6.640;2023-04-06T18:21:27;5.18;;;2.75;;
40588;SDS011;26297;49.450;6.640;2023-04-06T18:24:40;3.38;;;2.20;;
40588;SDS011;26297;49.450;6.640;2023-04-06T18:27:50;2.40;;;2.10;;
40588;SDS011;26297;49.450;6.640;2023-04-06T18:30:56;2.97;;;2.30;;
40588;SDS011;26297;49.450;6.640;2023-04-06T18:34:04;2.47;;;2.10;;
40588;SDS011;26297;49.450;6.640;2023-04-06T18:37:08;2.90;;;2.08;;
40588;SDS011;26297;49.450;6.640;2023-04-06T18:44:13;3.72;;;2.20;;
40588;SDS011;26297;49.450;6.640;2023-04-06T18:47:22;2.42;;;2.22;;
40588;SDS011;26297;49.450;6.640;2023-04-06T18:50:39;3.30;;;2.60;;
40588;SDS011;26297;49.450;6.640;2023-04-06T18:53:59;5.55;;;2.63;;
40588;SDS011;26297;49.450;6.640;2023-04-06T18:57:27;4.65;;;2.10;;
40588;SDS011;26297;49.450;6.640;2023-04-06T19:00:49;2.53;;;1.98;;
40588;SDS011;26297;49.450;6.640;2023-04-06T19:04:02;3.90;;;2.30;;
40588;SDS011;26297;49.450;6.640;2023-04-06T19:07:16;2.28;;;2.08;;
40588;SDS011;26297;49.450;6.640;2023-04-06T19:10:19;3.85;;;2.50;;
40588;SDS011;26297;49.450;6.640;2023-04-06T19:13:25;3.30;;;2.38;;
40588;SDS011;26297;49.450;6.640;2023-04-06T19:16:32;3.08;;;2.28;;
40588;SDS011;26297;49.450;6.640;2023-04-06T19:19:52;2.55;;;2.33;;
40588;SDS011;26297;49.450;6.640;2023-04-06T19:23:17;2.53;;;2.30;;
40588;SDS011;26297;49.450;6.640;2023-04-06T19:26:32;3.33;;;2.63;;
40588;SDS011;26297;49.450;6.640;2023-04-06T19:29:36;2.25;;;2.05;;
40588;SDS011;26297;49.450;6.640;2023-04-06T19:32:49;2.00;;;1.90;;
40588;SDS011;26297;49.450;6.640;2023-04-06T19:35:59;4.80;;;2.60;;
40588;SDS011;26297;49.450;6.640;2023-04-06T19:39:05;3.50;;;2.30;;
40588;SDS011;26297;49.450;6.640;2023-04-06T19:42:38;4.00;;;2.80;;
40588;SDS011;26297;49.450;6.640;2023-04-06T19:45:46;2.97;;;2.45;;
40588;SDS011;26297;49.450;6.640;2023-04-06T19:49:14;2.83;;;2.28;;
40588;SDS011;26297;49.450;6.640;2023-04-06T19:52:27;3.65;;;2.85;;
40588;SDS011;26297;49.450;6.640;2023-04-06T19:55:41;4.07;;;2.60;;
40588;SDS011;26297;49.450;6.640;2023-04-06T19:58:48;5.25;;;3.17;;
40588;SDS011;26297;49.450;6.640;2023-04-06T20:02:03;3.20;;;2.50;;
40588;SDS011;26297;49.450;6.640;2023-04-06T20:05:11;3.03;;;2.37;;
40588;SDS011;26297;49.450;6.640;2023-04-06T20:08:18;3.00;;;2.50;;
40588;SDS011;26297;49.450;6.640;2023-04-06T20:11:31;3.38;;;2.33;;
40588;SDS011;26297;49.450;6.640;2023-04-06T20:14:47;3.92;;;2.97;;
